createdAt,value
2018-11-07T00:00:22.010Z,19.10
2018-11-07T00:02:50.238Z,19.00
2018-11-07T00:05:19.160Z,19.00
2018-11-07T00:07:47.316Z,19.00
2018-11-07T00:10:15.330Z,19.00
2018-11-07T00:12:43.612Z,19.00
2018-11-07T00:15:13.994Z,19.00
2018-11-07T00:17:42.118Z,18.90
2018-11-07T00:20:11.326Z,18.90
2018-11-07T00:22:39.499Z,18.90
2018-11-07T00:25:08.607Z,18.90
2018-11-07T00:27:36.734Z,18.90
2018-11-07T00:30:05.856Z,18.90
2018-11-07T00:32:33.868Z,18.90
2018-11-07T00:35:01.936Z,18.90
2018-11-07T00:37:29.966Z,18.90
2018-11-07T00:39:58.058Z,18.90
2018-11-07T00:42:26.166Z,18.80
2018-11-07T00:44:54.174Z,18.90
2018-11-07T00:47:22.310Z,18.80
2018-11-07T00:49:50.370Z,18.80
2018-11-07T00:52:18.467Z,18.80
2018-11-07T00:54:46.576Z,18.80
2018-11-07T00:57:14.632Z,18.80
2018-11-07T00:59:42.703Z,18.80
2018-11-07T01:02:10.805Z,18.80
2018-11-07T01:04:39.659Z,18.70
2018-11-07T01:07:07.790Z,18.70
2018-11-07T01:09:35.973Z,18.70
2018-11-07T01:12:05.294Z,18.70
2018-11-07T01:14:33.334Z,18.70
2018-11-07T01:17:01.483Z,18.70
2018-11-07T01:19:29.566Z,18.60
2018-11-07T01:21:57.626Z,18.60
2018-11-07T01:24:25.691Z,18.60
2018-11-07T01:26:53.743Z,18.60
2018-11-07T01:29:21.790Z,18.60
2018-11-07T01:31:49.854Z,18.60
2018-11-07T01:34:17.972Z,18.60
2018-11-07T01:36:46.078Z,18.60
2018-11-07T01:39:14.532Z,18.60
2018-11-07T01:41:42.578Z,18.50
2018-11-07T01:44:10.630Z,18.60
2018-11-07T01:46:38.703Z,18.50
2018-11-07T01:49:06.914Z,18.50
2018-11-07T01:51:34.982Z,18.50
2018-11-07T01:54:03.058Z,18.50
2018-11-07T01:56:31.126Z,18.50
2018-11-07T01:58:59.187Z,18.50
2018-11-07T02:01:27.264Z,18.40
2018-11-07T02:03:55.414Z,18.40
2018-11-07T02:06:23.460Z,18.40
2018-11-07T02:08:51.516Z,18.40
2018-11-07T02:11:19.583Z,18.40
2018-11-07T02:13:47.646Z,18.40
2018-11-07T02:16:15.715Z,18.30
2018-11-07T02:18:43.803Z,18.30
2018-11-07T02:21:11.880Z,18.30
2018-11-07T02:23:39.922Z,18.30
2018-11-07T02:26:08.100Z,18.20
2018-11-07T02:28:36.092Z,18.20
2018-11-07T02:31:04.687Z,18.20
2018-11-07T02:33:32.794Z,18.20
2018-11-07T02:36:00.970Z,18.20
2018-11-07T02:38:29.034Z,18.20
2018-11-07T02:40:57.114Z,18.20
2018-11-07T02:43:25.178Z,18.20
2018-11-07T02:45:53.317Z,18.10
2018-11-07T02:48:21.378Z,18.10
2018-11-07T02:50:49.490Z,18.10
2018-11-07T02:53:17.652Z,18.10
2018-11-07T02:55:45.715Z,18.10
2018-11-07T02:58:13.818Z,18.10
2018-11-07T03:00:41.878Z,18.10
2018-11-07T03:03:09.946Z,18.10
2018-11-07T03:05:38.094Z,18.00
2018-11-07T03:08:06.167Z,18.00
2018-11-07T03:10:34.288Z,18.00
2018-11-07T03:13:02.367Z,18.00
2018-11-07T03:15:30.540Z,18.00
2018-11-07T03:20:33.971Z,18.00
2018-11-07T03:23:02.098Z,17.90
2018-11-07T03:25:30.263Z,17.90
2018-11-07T03:27:58.330Z,18.00
2018-11-07T03:30:26.386Z,18.00
2018-11-07T03:32:54.472Z,17.90
2018-11-07T03:35:26.959Z,17.90
2018-11-07T03:37:56.268Z,17.90
2018-11-07T03:40:24.841Z,17.90
2018-11-07T03:42:53.044Z,17.90
2018-11-07T03:45:26.662Z,17.90
2018-11-07T03:47:54.733Z,17.90
2018-11-07T03:50:23.128Z,17.90
2018-11-07T03:52:51.199Z,17.80
2018-11-07T03:55:19.334Z,17.80
2018-11-07T03:57:47.416Z,17.80
2018-11-07T04:00:15.527Z,17.80
2018-11-07T04:02:44.094Z,17.80
2018-11-07T04:05:12.347Z,17.80
2018-11-07T04:07:41.437Z,17.80
2018-11-07T04:10:09.642Z,17.80
2018-11-07T04:12:37.770Z,17.80
2018-11-07T04:15:06.919Z,17.80
2018-11-07T04:17:35.003Z,17.80
2018-11-07T04:20:03.211Z,17.70
2018-11-07T04:22:31.263Z,17.70
2018-11-07T04:24:59.374Z,17.70
2018-11-07T04:27:27.696Z,17.70
2018-11-07T04:29:55.754Z,17.60
2018-11-07T04:32:23.823Z,17.60
2018-11-07T04:34:51.903Z,17.60
2018-11-07T04:37:19.994Z,17.60
2018-11-07T04:39:48.111Z,17.60
2018-11-07T04:42:16.281Z,17.60
2018-11-07T04:44:44.406Z,17.60
2018-11-07T04:47:12.474Z,17.60
2018-11-07T04:49:40.562Z,17.50
2018-11-07T04:52:08.690Z,17.50
2018-11-07T04:54:36.788Z,17.50
2018-11-07T04:57:05.536Z,17.50
2018-11-07T04:59:33.597Z,17.50
2018-11-07T05:02:01.688Z,17.50
2018-11-07T05:04:29.830Z,17.50
2018-11-07T05:06:57.907Z,17.50
2018-11-07T05:09:25.990Z,17.50
2018-11-07T05:11:54.136Z,17.50
2018-11-07T05:14:22.364Z,17.50
2018-11-07T05:16:50.722Z,17.40
2018-11-07T05:19:18.798Z,17.40
2018-11-07T05:21:46.895Z,17.40
2018-11-07T05:24:15.006Z,17.40
2018-11-07T05:26:43.138Z,17.40
2018-11-07T05:29:11.483Z,17.40
2018-11-07T05:31:39.579Z,17.40
2018-11-07T05:34:07.748Z,17.40
2018-11-07T05:36:35.910Z,17.40
2018-11-07T05:39:05.441Z,17.40
2018-11-07T05:41:33.894Z,17.40
2018-11-07T05:44:02.066Z,17.40
2018-11-07T05:46:30.538Z,17.30
2018-11-07T05:48:58.713Z,17.30
2018-11-07T05:51:26.830Z,17.30
2018-11-07T05:53:55.270Z,17.30
2018-11-07T05:56:23.708Z,17.30
2018-11-07T05:58:51.858Z,17.30
2018-11-07T06:01:20.007Z,17.20
2018-11-07T06:03:48.299Z,17.20
2018-11-07T06:06:16.402Z,17.30
2018-11-07T06:08:44.551Z,17.30
2018-11-07T06:11:12.700Z,17.30
2018-11-07T06:13:40.807Z,17.30
2018-11-07T06:16:09.007Z,17.20
2018-11-07T06:18:37.120Z,17.20
2018-11-07T06:21:05.202Z,17.10
2018-11-07T06:23:33.266Z,17.10
2018-11-07T06:26:01.337Z,17.10
2018-11-07T06:28:29.622Z,17.10
2018-11-07T06:30:57.806Z,17.10
2018-11-07T06:33:25.865Z,17.10
2018-11-07T06:35:54.144Z,17.10
2018-11-07T06:38:22.574Z,17.10
2018-11-07T06:40:50.642Z,17.10
2018-11-07T06:43:18.981Z,17.10
2018-11-07T06:45:47.030Z,17.10
2018-11-07T06:48:15.109Z,17.10
2018-11-07T06:50:43.219Z,17.10
2018-11-07T06:53:11.303Z,17.10
2018-11-07T06:55:39.442Z,17.10
2018-11-07T06:58:07.430Z,17.10
2018-11-07T07:00:36.032Z,17.10
2018-11-07T07:03:04.896Z,17.10
2018-11-07T07:05:32.971Z,17.10
2018-11-07T07:08:01.079Z,17.10
2018-11-07T07:10:29.142Z,17.10
2018-11-07T07:12:57.226Z,17.10
2018-11-07T07:15:25.266Z,17.10
2018-11-07T07:17:53.377Z,17.20
2018-11-07T07:20:21.576Z,17.20
2018-11-07T07:22:50.242Z,17.20
2018-11-07T07:25:18.451Z,17.30
2018-11-07T07:27:47.123Z,17.30
2018-11-07T07:30:16.481Z,17.30
2018-11-07T07:32:45.182Z,17.30
2018-11-07T07:35:13.850Z,17.30
2018-11-07T07:37:41.918Z,17.40
2018-11-07T07:40:12.277Z,17.40
2018-11-07T07:42:41.318Z,17.50
2018-11-07T07:45:11.757Z,17.40
2018-11-07T07:47:40.360Z,17.50
2018-11-07T07:50:10.034Z,17.60
2018-11-07T07:52:38.206Z,17.70
2018-11-07T07:55:06.470Z,17.80
2018-11-07T07:57:34.552Z,17.90
2018-11-07T08:00:02.642Z,18.10
2018-11-07T08:02:30.927Z,18.40
2018-11-07T08:04:58.978Z,18.70
2018-11-07T08:07:27.352Z,19.00
2018-11-07T08:09:55.438Z,19.20
2018-11-07T08:12:23.490Z,19.40
2018-11-07T08:14:51.561Z,19.60
2018-11-07T08:17:19.622Z,20.00
2018-11-07T08:19:48.229Z,20.10
2018-11-07T08:22:16.274Z,20.30
2018-11-07T08:24:44.351Z,20.30
2018-11-07T08:27:12.394Z,20.30
2018-11-07T08:29:40.454Z,20.50
2018-11-07T08:32:08.961Z,20.70
2018-11-07T08:34:37.474Z,20.80
2018-11-07T08:37:05.526Z,21.00
2018-11-07T08:39:33.699Z,21.10
2018-11-07T08:42:01.786Z,21.10
2018-11-07T08:44:29.835Z,21.00
2018-11-07T08:46:57.890Z,21.00
2018-11-07T08:49:25.958Z,21.00
2018-11-07T08:51:54.038Z,21.10
2018-11-07T08:54:22.103Z,21.10
2018-11-07T08:56:50.181Z,21.10
2018-11-07T08:59:18.290Z,21.10
2018-11-07T09:01:46.379Z,21.00
2018-11-07T09:04:14.453Z,21.00
2018-11-07T09:06:42.506Z,21.20
2018-11-07T09:09:11.474Z,21.30
2018-11-07T09:11:39.654Z,21.40
2018-11-07T09:14:07.995Z,21.40
2018-11-07T09:16:36.060Z,21.30
2018-11-07T09:19:04.102Z,21.30
2018-11-07T09:21:32.758Z,21.30
2018-11-07T09:24:00.858Z,21.20
2018-11-07T09:26:28.923Z,21.20
2018-11-07T09:28:57.208Z,21.20
2018-11-07T09:31:25.294Z,21.20
2018-11-07T09:33:53.393Z,21.30
2018-11-07T09:36:21.463Z,21.50
2018-11-07T09:38:49.521Z,21.60
2018-11-07T09:41:17.694Z,21.50
2018-11-07T09:43:45.830Z,21.50
2018-11-07T09:46:14.352Z,21.50
2018-11-07T09:48:42.572Z,21.50
2018-11-07T09:51:10.622Z,21.50
2018-11-07T09:53:38.712Z,21.50
2018-11-07T09:56:06.717Z,21.60
2018-11-07T09:58:34.887Z,21.70
2018-11-07T10:01:02.958Z,21.80
2018-11-07T10:03:31.088Z,21.80
2018-11-07T10:05:59.123Z,21.70
2018-11-07T10:08:27.200Z,21.60
2018-11-07T10:10:55.534Z,21.50
2018-11-07T10:13:23.612Z,21.50
2018-11-07T10:15:51.697Z,21.50
2018-11-07T10:18:19.790Z,21.50
2018-11-07T10:20:47.882Z,21.60
2018-11-07T10:23:16.252Z,21.50
2018-11-07T10:25:44.330Z,21.50
2018-11-07T10:28:12.616Z,21.70
2018-11-07T10:30:40.518Z,21.80
2018-11-07T10:33:08.702Z,21.80
2018-11-07T10:35:36.798Z,21.70
2018-11-07T10:38:05.231Z,21.70
2018-11-07T10:40:34.355Z,21.70
2018-11-07T10:43:02.437Z,21.60
2018-11-07T10:45:30.513Z,21.70
2018-11-07T10:47:58.583Z,21.60
2018-11-07T10:50:26.732Z,21.60
2018-11-07T10:52:54.840Z,21.60
2018-11-07T10:55:22.937Z,21.60
2018-11-07T10:57:50.982Z,21.70
2018-11-07T11:00:24.433Z,21.70
2018-11-07T11:02:56.904Z,21.70
2018-11-07T11:05:25.063Z,21.80
2018-11-07T11:07:53.129Z,21.80
2018-11-07T11:10:21.486Z,21.80
2018-11-07T11:12:49.789Z,21.80
2018-11-07T11:15:17.849Z,21.80
2018-11-07T11:17:46.000Z,21.80
2018-11-07T11:20:14.543Z,21.80
2018-11-07T11:22:42.634Z,21.80
2018-11-07T11:25:11.106Z,21.80
2018-11-07T11:27:39.227Z,21.80
2018-11-07T11:30:07.939Z,21.70
2018-11-07T11:32:36.067Z,21.70
2018-11-07T11:35:04.429Z,21.70
2018-11-07T11:37:32.458Z,21.70
2018-11-07T11:40:00.898Z,21.70
2018-11-07T11:42:29.170Z,21.70
2018-11-07T11:44:57.306Z,21.60
2018-11-07T11:47:25.351Z,21.60
2018-11-07T11:49:53.517Z,21.50
2018-11-07T11:52:21.586Z,21.40
2018-11-07T11:54:49.656Z,21.40
2018-11-07T11:57:17.735Z,21.40
2018-11-07T11:59:46.059Z,21.50
2018-11-07T12:02:13.907Z,21.40
2018-11-07T12:04:41.919Z,21.40
2018-11-07T12:07:10.004Z,21.50
2018-11-07T12:09:38.076Z,21.50
2018-11-07T12:12:06.297Z,21.50
2018-11-07T12:14:34.358Z,21.60
2018-11-07T12:17:02.464Z,21.60
2018-11-07T12:19:30.531Z,21.50
2018-11-07T12:21:58.599Z,21.50
2018-11-07T12:24:26.695Z,21.50
2018-11-07T12:26:54.835Z,21.50
2018-11-07T12:29:22.822Z,21.50
2018-11-07T12:31:50.918Z,21.50
2018-11-07T12:34:19.066Z,21.50
2018-11-07T12:36:47.129Z,21.60
2018-11-07T12:39:15.182Z,21.60
2018-11-07T12:41:43.226Z,21.60
2018-11-07T12:44:11.357Z,21.60
2018-11-07T12:46:39.398Z,21.60
2018-11-07T12:49:07.471Z,21.50
2018-11-07T12:51:35.598Z,21.50
2018-11-07T12:54:03.658Z,21.50
2018-11-07T12:56:31.710Z,21.40
2018-11-07T12:59:00.004Z,21.40
2018-11-07T13:01:28.122Z,21.40
2018-11-07T13:03:56.174Z,21.40
2018-11-07T13:06:24.265Z,21.40
2018-11-07T13:08:52.621Z,21.30
2018-11-07T13:11:20.745Z,21.30
2018-11-07T13:13:48.742Z,21.30
2018-11-07T13:16:16.807Z,21.40
2018-11-07T13:18:44.914Z,21.40
2018-11-07T13:21:13.010Z,21.40
2018-11-07T13:23:41.202Z,21.40
2018-11-07T13:26:09.281Z,21.30
2018-11-07T13:28:37.449Z,21.30
2018-11-07T13:31:05.782Z,21.30
2018-11-07T13:33:34.452Z,21.30
2018-11-07T13:36:02.499Z,21.30
2018-11-07T13:38:30.940Z,21.30
2018-11-07T13:40:58.643Z,21.30
2018-11-07T13:43:26.703Z,21.20
2018-11-07T13:45:54.868Z,21.30
2018-11-07T13:48:22.879Z,21.30
2018-11-07T13:50:50.922Z,21.30
2018-11-07T13:53:19.047Z,21.30
2018-11-07T13:55:47.080Z,21.30
2018-11-07T13:58:15.221Z,21.30
2018-11-07T14:00:43.278Z,21.20
2018-11-07T14:03:11.336Z,21.30
2018-11-07T14:05:39.627Z,21.20
2018-11-07T14:08:07.481Z,21.20
2018-11-07T14:10:35.574Z,21.10
2018-11-07T14:13:03.662Z,21.10
2018-11-07T14:15:31.731Z,21.10
2018-11-07T14:17:59.783Z,21.10
2018-11-07T14:20:27.839Z,21.00
2018-11-07T14:22:55.932Z,21.10
2018-11-07T14:25:24.006Z,21.10
2018-11-07T14:27:52.221Z,21.10
2018-11-07T14:30:20.674Z,21.10
2018-11-07T14:32:50.763Z,21.10
2018-11-07T14:35:18.878Z,21.00
2018-11-07T14:37:46.951Z,21.00
2018-11-07T14:40:15.008Z,20.90
2018-11-07T14:42:43.150Z,20.90
2018-11-07T14:45:11.882Z,20.90
2018-11-07T14:47:40.572Z,20.80
2018-11-07T14:50:09.551Z,20.90
2018-11-07T14:52:37.810Z,21.00
2018-11-07T14:55:06.299Z,21.00
2018-11-07T14:57:35.013Z,21.00
2018-11-07T15:00:03.408Z,21.00
2018-11-07T15:02:31.853Z,21.00
2018-11-07T15:04:59.870Z,21.00
2018-11-07T15:07:27.911Z,20.90
2018-11-07T15:09:56.037Z,20.80
2018-11-07T15:12:24.265Z,20.80
2018-11-07T15:14:52.338Z,20.80
2018-11-07T15:17:20.501Z,20.70
2018-11-07T15:19:48.466Z,20.80
2018-11-07T15:22:16.518Z,20.80
2018-11-07T15:24:44.819Z,20.80
2018-11-07T15:27:12.850Z,20.80
2018-11-07T15:29:40.950Z,20.80
2018-11-07T15:32:08.993Z,20.70
2018-11-07T15:34:37.051Z,20.70
2018-11-07T15:37:05.624Z,20.70
2018-11-07T15:39:33.682Z,20.80
2018-11-07T15:42:01.754Z,20.80
2018-11-07T15:44:29.809Z,20.80
2018-11-07T15:46:57.882Z,20.80
2018-11-07T15:49:25.946Z,20.70
2018-11-07T15:51:54.444Z,20.70
2018-11-07T15:54:22.514Z,20.70
2018-11-07T15:56:50.813Z,20.70
2018-11-07T15:59:18.928Z,20.70
2018-11-07T16:01:46.982Z,20.70
2018-11-07T16:04:15.114Z,20.60
2018-11-07T16:06:43.219Z,20.70
2018-11-07T16:09:11.279Z,20.70
2018-11-07T16:11:39.326Z,20.70
2018-11-07T16:14:07.713Z,20.70
2018-11-07T16:16:35.865Z,20.60
2018-11-07T16:19:03.922Z,20.60
2018-11-07T16:21:32.199Z,20.60
2018-11-07T16:24:00.256Z,20.60
2018-11-07T16:26:28.358Z,20.60
2018-11-07T16:28:56.434Z,20.50
2018-11-07T16:31:24.576Z,20.50
2018-11-07T16:33:52.626Z,20.50
2018-11-07T16:36:20.798Z,20.60
2018-11-07T16:38:49.056Z,20.60
2018-11-07T16:41:17.252Z,20.60
2018-11-07T16:43:45.159Z,20.50
2018-11-07T16:46:13.227Z,20.50
2018-11-07T16:48:41.297Z,20.50
2018-11-07T16:51:09.314Z,20.50
2018-11-07T16:53:37.357Z,20.40
2018-11-07T16:56:06.326Z,20.40
2018-11-07T16:58:34.496Z,20.40
2018-11-07T17:01:02.636Z,20.40
2018-11-07T17:03:30.727Z,20.40
2018-11-07T17:05:58.788Z,20.50
2018-11-07T17:08:26.840Z,20.50
2018-11-07T17:10:54.990Z,20.50
2018-11-07T17:13:23.187Z,20.50
2018-11-07T17:15:51.311Z,20.50
2018-11-07T17:18:19.310Z,20.50
2018-11-07T17:20:47.375Z,20.40
2018-11-07T17:23:18.532Z,20.40
2018-11-07T17:25:43.510Z,20.30
2018-11-07T17:28:11.571Z,20.30
2018-11-07T17:30:39.674Z,20.30
2018-11-07T17:33:07.724Z,20.30
2018-11-07T17:35:35.888Z,20.30
2018-11-07T17:38:03.962Z,20.30
2018-11-07T17:40:32.009Z,20.40
2018-11-07T17:43:00.083Z,20.40
2018-11-07T17:45:28.130Z,20.40
2018-11-07T17:47:56.255Z,20.40
2018-11-07T17:50:24.301Z,20.40
2018-11-07T17:52:52.780Z,20.30
2018-11-07T17:55:21.558Z,20.30
2018-11-07T17:57:49.627Z,20.30
2018-11-07T18:00:19.107Z,20.20
2018-11-07T18:02:47.194Z,20.20
2018-11-07T18:05:15.246Z,20.20
2018-11-07T18:07:43.369Z,20.10
2018-11-07T18:10:14.906Z,20.30
2018-11-07T18:12:43.398Z,20.30
2018-11-07T18:15:11.750Z,20.30
2018-11-07T18:17:39.839Z,20.30
2018-11-07T18:20:09.334Z,20.30
2018-11-07T18:22:37.394Z,20.30
2018-11-07T18:25:06.743Z,20.30
2018-11-07T18:27:34.798Z,20.30
2018-11-07T18:30:02.867Z,20.30
2018-11-07T18:32:30.964Z,20.30
2018-11-07T18:34:59.274Z,20.40
2018-11-07T18:37:27.305Z,20.40
2018-11-07T18:39:56.938Z,20.40
2018-11-07T18:42:25.063Z,20.40
2018-11-07T18:44:53.116Z,20.40
2018-11-07T18:47:21.162Z,20.30
2018-11-07T18:49:49.225Z,20.30
2018-11-07T18:52:17.301Z,20.30
2018-11-07T18:54:45.362Z,20.30
2018-11-07T18:57:13.439Z,20.30
2018-11-07T18:59:41.489Z,20.30
2018-11-07T19:02:09.583Z,20.30
2018-11-07T19:04:38.069Z,20.40
2018-11-07T19:07:06.174Z,20.30
2018-11-07T19:09:34.234Z,20.30
2018-11-07T19:12:02.544Z,20.30
2018-11-07T19:14:30.618Z,20.30
2018-11-07T19:16:58.646Z,20.40
2018-11-07T19:19:27.135Z,20.40
2018-11-07T19:21:55.243Z,20.40
2018-11-07T19:24:23.295Z,20.40
2018-11-07T19:26:51.697Z,20.40
2018-11-07T19:29:19.643Z,20.40
2018-11-07T19:31:47.694Z,20.30
2018-11-07T19:34:15.786Z,20.30
2018-11-07T19:36:43.894Z,20.30
2018-11-07T19:39:11.974Z,20.20
2018-11-07T19:41:40.046Z,20.20
2018-11-07T19:44:08.586Z,20.30
2018-11-07T19:46:36.941Z,20.30
2018-11-07T19:49:05.614Z,20.30
2018-11-07T19:51:33.809Z,20.30
2018-11-07T19:54:02.032Z,20.30
2018-11-07T19:56:29.990Z,20.30
2018-11-07T19:58:58.075Z,20.20
2018-11-07T20:01:26.658Z,20.20
2018-11-07T20:03:55.466Z,20.10
2018-11-07T20:06:24.306Z,20.10
2018-11-07T20:08:52.438Z,20.00
2018-11-07T20:11:20.478Z,20.00
2018-11-07T20:13:48.526Z,20.00
2018-11-07T20:16:16.615Z,20.00
2018-11-07T20:18:44.614Z,19.90
2018-11-07T20:21:12.685Z,20.00
2018-11-07T20:23:40.747Z,19.90
2018-11-07T20:26:08.818Z,19.80
2018-11-07T20:28:36.899Z,19.80
2018-11-07T20:31:05.188Z,19.80
2018-11-07T20:33:33.254Z,19.70
2018-11-07T20:36:01.326Z,19.70
2018-11-07T20:38:29.331Z,19.60
2018-11-07T20:40:57.400Z,19.60
2018-11-07T20:43:25.680Z,19.60
2018-11-07T20:45:53.899Z,19.60
2018-11-07T20:48:21.946Z,19.50
2018-11-07T20:50:49.998Z,19.50
2018-11-07T20:53:18.030Z,19.50
2018-11-07T20:55:46.118Z,19.50
2018-11-07T20:58:14.174Z,19.40
2018-11-07T21:00:42.230Z,19.40
2018-11-07T21:03:10.314Z,19.40
2018-11-07T21:05:38.395Z,19.40
2018-11-07T21:08:06.442Z,19.30
2018-11-07T21:10:34.541Z,19.30
2018-11-07T21:13:02.590Z,19.30
2018-11-07T21:15:30.654Z,19.20
2018-11-07T21:17:58.715Z,19.20
2018-11-07T21:20:26.769Z,19.20
2018-11-07T21:22:54.841Z,19.20
2018-11-07T21:25:22.924Z,19.10
2018-11-07T21:27:50.970Z,19.10
2018-11-07T21:30:19.018Z,19.10
2018-11-07T21:32:47.322Z,19.20
2018-11-07T21:35:15.448Z,19.30
2018-11-07T21:37:43.444Z,19.30
2018-11-07T21:40:13.881Z,19.30
2018-11-07T21:42:42.061Z,19.50
2018-11-07T21:45:11.390Z,19.50
2018-11-07T21:47:40.042Z,19.60
2018-11-07T21:50:09.468Z,19.60
2018-11-07T21:52:37.678Z,19.60
2018-11-07T21:55:05.965Z,19.60
2018-11-07T21:57:34.126Z,19.60
2018-11-07T22:00:03.213Z,19.60
2018-11-07T22:02:31.502Z,19.70
2018-11-07T22:04:59.576Z,19.60
2018-11-07T22:07:27.734Z,19.60
2018-11-07T22:09:58.801Z,19.70
2018-11-07T22:12:26.859Z,19.80
2018-11-07T22:14:54.990Z,19.80
2018-11-07T22:17:23.029Z,19.70
2018-11-07T22:19:51.077Z,19.70
2018-11-07T22:22:19.134Z,19.70
2018-11-07T22:24:47.183Z,19.60
2018-11-07T22:27:15.235Z,19.60
2018-11-07T22:29:43.290Z,19.60
2018-11-07T22:32:11.346Z,19.50
2018-11-07T22:34:39.398Z,19.50
2018-11-07T22:37:07.445Z,19.50
2018-11-07T22:39:35.503Z,19.50
2018-11-07T22:42:03.550Z,19.40
2018-11-07T22:44:31.619Z,19.40
2018-11-07T22:46:59.662Z,19.40
2018-11-07T22:49:27.710Z,19.30
2018-11-07T22:51:55.766Z,19.30
2018-11-07T22:54:23.843Z,19.30
2018-11-07T22:56:51.907Z,19.20
2018-11-07T22:59:19.973Z,19.20
2018-11-07T23:01:48.262Z,19.10
2018-11-07T23:04:16.315Z,19.10
2018-11-07T23:06:44.376Z,19.10
2018-11-07T23:09:14.334Z,19.00
2018-11-07T23:11:43.430Z,19.00
2018-11-07T23:14:12.730Z,19.00
2018-11-07T23:16:41.458Z,19.00
2018-11-07T23:19:09.820Z,18.90
2018-11-07T23:21:38.024Z,18.90
2018-11-07T23:24:06.347Z,18.90
2018-11-07T23:26:34.468Z,18.80
2018-11-07T23:29:02.594Z,18.80
2018-11-07T23:31:30.814Z,18.80
2018-11-07T23:33:59.566Z,18.80
2018-11-07T23:36:27.630Z,18.70
2018-11-07T23:38:55.810Z,18.70
2018-11-07T23:41:24.158Z,18.70
2018-11-07T23:43:52.199Z,18.70
2018-11-07T23:46:20.254Z,18.60
2018-11-07T23:48:48.530Z,18.60
2018-11-07T23:51:16.645Z,18.60
2018-11-07T23:53:44.722Z,18.60
2018-11-07T23:56:12.991Z,18.60
2018-11-07T23:58:41.041Z,18.60
